sensor_id;sensor_type;location;lat;lon;timestamp;P1;durP1;ratioP1;P2;durP2;ratioP2
16393;SDS011;8306;51.128;4.476;2023-06-14T00:01:56;5.07;;;4.67;;
16393;SDS011;8306;51.128;4.476;2023-06-14T00:04:22;4.90;;;4.60;;
16393;SDS011;8306;51.128;4.476;2023-06-14T00:06:49;5.73;;;5.23;;
16393;SDS011;8306;51.128;4.476;2023-06-14T00:09:15;7.57;;;4.70;;
16393;SDS011;8306;51.128;4.476;2023-06-14T00:11:42;5.43;;;5.03;;
16393;SDS011;8306;51.128;4.476;2023-06-14T00:14:08;7.13;;;5.10;;
16393;SDS011;8306;51.128;4.476;2023-06-14T00:16:35;5.03;;;4.73;;
16393;SDS011;8306;51.128;4.476;2023-06-14T00:19:01;5.40;;;4.90;;
16393;SDS011;8306;51.128;4.476;2023-06-14T00:21:31;5.40;;;4.90;;
16393;SDS011;8306;51.128;4.476;2023-06-14T00:23:57;5.47;;;5.07;;
16393;SDS011;8306;51.128;4.476;2023-06-14T00:26:24;5.47;;;5.07;;
16393;SDS011;8306;51.128;4.476;2023-06-14T00:28:50;6.47;;;5.87;;
16393;SDS011;8306;51.128;4.476;2023-06-14T00:31:16;5.97;;;5.57;;
16393;SDS011;8306;51.128;4.476;2023-06-14T00:33:43;6.43;;;5.87;;
16393;SDS011;8306;51.128;4.476;2023-06-14T00:36:09;5.40;;;5.00;;
16393;SDS011;8306;51.128;4.476;2023-06-14T00:38:36;5.97;;;5.43;;
16393;SDS011;8306;51.128;4.476;2023-06-14T00:41:02;5.70;;;5.13;;
16393;SDS011;8306;51.128;4.476;2023-06-14T00:43:29;5.60;;;5.10;;
16393;SDS011;8306;51.128;4.476;2023-06-14T00:45:55;6.10;;;5.70;;
16393;SDS011;8306;51.128;4.476;2023-06-14T00:48:22;6.27;;;5.77;;
16393;SDS011;8306;51.128;4.476;2023-06-14T00:50:49;6.13;;;5.53;;
16393;SDS011;8306;51.128;4.476;2023-06-14T00:53:15;6.23;;;5.63;;
16393;SDS011;8306;51.128;4.476;2023-06-14T00:55:41;6.17;;;5.57;;
16393;SDS011;8306;51.128;4.476;2023-06-14T00:58:09;6.10;;;5.63;;
16393;SDS011;8306;51.128;4.476;2023-06-14T01:00:35;6.10;;;5.67;;
16393;SDS011;8306;51.128;4.476;2023-06-14T01:03:02;6.50;;;5.90;;
16393;SDS011;8306;51.128;4.476;2023-06-14T01:05:28;6.73;;;6.13;;
16393;SDS011;8306;51.128;4.476;2023-06-14T01:08:05;6.67;;;6.10;;
16393;SDS011;8306;51.128;4.476;2023-06-14T01:10:32;6.40;;;5.90;;
16393;SDS011;8306;51.128;4.476;2023-06-14T01:15:43;5.90;;;5.40;;
16393;SDS011;8306;51.128;4.476;2023-06-14T01:18:10;6.33;;;5.73;;
16393;SDS011;8306;51.128;4.476;2023-06-14T01:20:36;6.07;;;5.67;;
16393;SDS011;8306;51.128;4.476;2023-06-14T01:23:03;7.10;;;6.37;;
16393;SDS011;8306;51.128;4.476;2023-06-14T01:25:29;6.67;;;5.97;;
16393;SDS011;8306;51.128;4.476;2023-06-14T01:27:58;6.00;;;5.50;;
16393;SDS011;8306;51.128;4.476;2023-06-14T01:30:25;6.70;;;6.10;;
16393;SDS011;8306;51.128;4.476;2023-06-14T01:32:52;6.33;;;5.83;;
16393;SDS011;8306;51.128;4.476;2023-06-14T01:35:18;6.23;;;5.73;;
16393;SDS011;8306;51.128;4.476;2023-06-14T01:37:45;6.70;;;6.10;;
16393;SDS011;8306;51.128;4.476;2023-06-14T01:40:11;5.40;;;5.00;;
16393;SDS011;8306;51.128;4.476;2023-06-14T01:42:38;6.43;;;6.03;;
16393;SDS011;8306;51.128;4.476;2023-06-14T01:45:04;6.63;;;6.13;;
16393;SDS011;8306;51.128;4.476;2023-06-14T01:47:31;6.40;;;5.90;;
16393;SDS011;8306;51.128;4.476;2023-06-14T01:49:57;6.27;;;5.70;;
16393;SDS011;8306;51.128;4.476;2023-06-14T01:52:24;6.43;;;6.03;;
16393;SDS011;8306;51.128;4.476;2023-06-14T01:54:50;6.37;;;5.67;;
16393;SDS011;8306;51.128;4.476;2023-06-14T01:57:17;5.63;;;5.23;;
16393;SDS011;8306;51.128;4.476;2023-06-14T01:59:43;6.17;;;5.67;;
16393;SDS011;8306;51.128;4.476;2023-06-14T02:02:10;6.20;;;5.70;;
16393;SDS011;8306;51.128;4.476;2023-06-14T02:04:36;6.00;;;5.50;;
16393;SDS011;8306;51.128;4.476;2023-06-14T02:07:03;5.53;;;5.00;;
16393;SDS011;8306;51.128;4.476;2023-06-14T02:09:29;6.00;;;5.50;;
16393;SDS011;8306;51.128;4.476;2023-06-14T02:11:56;5.93;;;5.43;;
16393;SDS011;8306;51.128;4.476;2023-06-14T02:14:22;6.07;;;5.53;;
16393;SDS011;8306;51.128;4.476;2023-06-14T02:16:49;5.97;;;5.13;;
16393;SDS011;8306;51.128;4.476;2023-06-14T02:19:15;6.10;;;5.50;;
16393;SDS011;8306;51.128;4.476;2023-06-14T02:21:42;5.37;;;5.07;;
16393;SDS011;8306;51.128;4.476;2023-06-14T02:24:08;5.77;;;5.40;;
16393;SDS011;8306;51.128;4.476;2023-06-14T02:26:34;5.80;;;5.30;;
16393;SDS011;8306;51.128;4.476;2023-06-14T02:29:01;5.07;;;4.67;;
16393;SDS011;8306;51.128;4.476;2023-06-14T02:31:27;5.37;;;4.97;;
16393;SDS011;8306;51.128;4.476;2023-06-14T02:33:54;5.40;;;5.00;;
16393;SDS011;8306;51.128;4.476;2023-06-14T02:36:20;5.53;;;5.10;;
16393;SDS011;8306;51.128;4.476;2023-06-14T02:38:47;6.23;;;5.00;;
16393;SDS011;8306;51.128;4.476;2023-06-14T02:41:13;5.27;;;4.80;;
16393;SDS011;8306;51.128;4.476;2023-06-14T02:43:40;5.07;;;4.67;;
16393;SDS011;8306;51.128;4.476;2023-06-14T02:46:06;5.10;;;4.67;;
16393;SDS011;8306;51.128;4.476;2023-06-14T02:48:33;8.33;;;4.97;;
16393;SDS011;8306;51.128;4.476;2023-06-14T02:50:59;7.93;;;5.13;;
16393;SDS011;8306;51.128;4.476;2023-06-14T02:53:26;5.20;;;4.77;;
16393;SDS011;8306;51.128;4.476;2023-06-14T02:55:52;5.13;;;4.63;;
16393;SDS011;8306;51.128;4.476;2023-06-14T02:58:19;4.80;;;4.47;;
16393;SDS011;8306;51.128;4.476;2023-06-14T03:00:45;5.17;;;4.60;;
16393;SDS011;8306;51.128;4.476;2023-06-14T03:03:12;5.27;;;4.77;;
16393;SDS011;8306;51.128;4.476;2023-06-14T03:05:38;5.13;;;4.73;;
16393;SDS011;8306;51.128;4.476;2023-06-14T03:08:05;10.23;;;4.97;;
16393;SDS011;8306;51.128;4.476;2023-06-14T03:10:31;5.30;;;4.90;;
16393;SDS011;8306;51.128;4.476;2023-06-14T03:12:58;5.03;;;4.43;;
16393;SDS011;8306;51.128;4.476;2023-06-14T03:15:24;5.10;;;4.70;;
16393;SDS011;8306;51.128;4.476;2023-06-14T03:17:50;5.80;;;4.77;;
16393;SDS011;8306;51.128;4.476;2023-06-14T03:20:17;5.07;;;4.57;;
16393;SDS011;8306;51.128;4.476;2023-06-14T03:22:43;5.03;;;4.27;;
16393;SDS011;8306;51.128;4.476;2023-06-14T03:25:10;5.17;;;4.70;;
16393;SDS011;8306;51.128;4.476;2023-06-14T03:27:36;5.17;;;4.67;;
16393;SDS011;8306;51.128;4.476;2023-06-14T03:30:03;5.47;;;4.73;;
16393;SDS011;8306;51.128;4.476;2023-06-14T03:32:29;7.00;;;4.60;;
16393;SDS011;8306;51.128;4.476;2023-06-14T03:34:56;5.90;;;4.37;;
16393;SDS011;8306;51.128;4.476;2023-06-14T03:37:22;5.00;;;4.60;;
16393;SDS011;8306;51.128;4.476;2023-06-14T03:39:49;5.10;;;4.70;;
16393;SDS011;8306;51.128;4.476;2023-06-14T03:42:15;5.17;;;4.60;;
16393;SDS011;8306;51.128;4.476;2023-06-14T03:44:42;5.10;;;4.67;;
16393;SDS011;8306;51.128;4.476;2023-06-14T03:47:08;4.70;;;4.33;;
16393;SDS011;8306;51.128;4.476;2023-06-14T03:49:35;5.90;;;4.77;;
16393;SDS011;8306;51.128;4.476;2023-06-14T03:52:01;4.87;;;4.50;;
16393;SDS011;8306;51.128;4.476;2023-06-14T03:54:28;5.00;;;4.60;;
16393;SDS011;8306;51.128;4.476;2023-06-14T03:56:54;14.73;;;4.70;;
16393;SDS011;8306;51.128;4.476;2023-06-14T03:59:21;5.00;;;4.57;;
16393;SDS011;8306;51.128;4.476;2023-06-14T04:01:47;4.93;;;4.07;;
16393;SDS011;8306;51.128;4.476;2023-06-14T04:04:14;4.43;;;4.10;;
16393;SDS011;8306;51.128;4.476;2023-06-14T04:06:40;4.93;;;4.53;;
16393;SDS011;8306;51.128;4.476;2023-06-14T04:09:07;5.33;;;4.50;;
16393;SDS011;8306;51.128;4.476;2023-06-14T04:11:33;4.77;;;4.37;;
16393;SDS011;8306;51.128;4.476;2023-06-14T04:14:01;4.73;;;4.33;;
16393;SDS011;8306;51.128;4.476;2023-06-14T04:16:26;4.73;;;4.33;;
16393;SDS011;8306;51.128;4.476;2023-06-14T04:18:54;4.63;;;4.23;;
16393;SDS011;8306;51.128;4.476;2023-06-14T04:21:19;6.30;;;4.27;;
16393;SDS011;8306;51.128;4.476;2023-06-14T04:23:45;4.00;;;3.70;;
16393;SDS011;8306;51.128;4.476;2023-06-14T04:26:12;4.53;;;4.13;;
16393;SDS011;8306;51.128;4.476;2023-06-14T04:28:38;4.93;;;4.40;;
16393;SDS011;8306;51.128;4.476;2023-06-14T04:31:05;6.50;;;4.40;;
16393;SDS011;8306;51.128;4.476;2023-06-14T04:33:31;4.83;;;4.43;;
16393;SDS011;8306;51.128;4.476;2023-06-14T04:35:58;6.20;;;4.73;;
16393;SDS011;8306;51.128;4.476;2023-06-14T04:38:24;6.83;;;4.50;;
16393;SDS011;8306;51.128;4.476;2023-06-14T04:40:51;5.00;;;4.30;;
16393;SDS011;8306;51.128;4.476;2023-06-14T04:43:17;5.77;;;4.20;;
16393;SDS011;8306;51.128;4.476;2023-06-14T04:45:44;7.40;;;4.33;;
16393;SDS011;8306;51.128;4.476;2023-06-14T04:48:10;7.70;;;4.80;;
16393;SDS011;8306;51.128;4.476;2023-06-14T04:50:37;4.90;;;4.27;;
16393;SDS011;8306;51.128;4.476;2023-06-14T04:53:03;5.50;;;5.10;;
16393;SDS011;8306;51.128;4.476;2023-06-14T04:55:30;5.00;;;4.60;;
16393;SDS011;8306;51.128;4.476;2023-06-14T04:57:56;5.23;;;4.83;;
16393;SDS011;8306;51.128;4.476;2023-06-14T05:00:23;5.17;;;4.67;;
16393;SDS011;8306;51.128;4.476;2023-06-14T05:02:49;5.10;;;4.70;;
16393;SDS011;8306;51.128;4.476;2023-06-14T05:05:17;5.80;;;5.40;;
16393;SDS011;8306;51.128;4.476;2023-06-14T05:07:42;5.23;;;4.30;;
16393;SDS011;8306;51.128;4.476;2023-06-14T05:10:09;4.70;;;4.30;;
16393;SDS011;8306;51.128;4.476;2023-06-14T05:12:35;5.80;;;4.70;;
16393;SDS011;8306;51.128;4.476;2023-06-14T05:15:02;5.37;;;4.77;;
16393;SDS011;8306;51.128;4.476;2023-06-14T05:17:28;6.07;;;4.77;;
16393;SDS011;8306;51.128;4.476;2023-06-14T05:19:54;5.60;;;5.20;;
16393;SDS011;8306;51.128;4.476;2023-06-14T05:22:21;9.03;;;5.53;;
16393;SDS011;8306;51.128;4.476;2023-06-14T05:24:47;5.80;;;5.27;;
16393;SDS011;8306;51.128;4.476;2023-06-14T05:27:14;5.77;;;5.30;;
16393;SDS011;8306;51.128;4.476;2023-06-14T05:29:40;6.10;;;5.50;;
16393;SDS011;8306;51.128;4.476;2023-06-14T05:32:07;5.80;;;5.20;;
16393;SDS011;8306;51.128;4.476;2023-06-14T05:34:33;5.83;;;5.27;;
16393;SDS011;8306;51.128;4.476;2023-06-14T05:37:00;5.53;;;5.13;;
16393;SDS011;8306;51.128;4.476;2023-06-14T05:39:26;6.63;;;5.13;;
16393;SDS011;8306;51.128;4.476;2023-06-14T05:41:53;7.00;;;5.60;;
16393;SDS011;8306;51.128;4.476;2023-06-14T05:44:19;7.43;;;5.80;;
16393;SDS011;8306;51.128;4.476;2023-06-14T05:46:46;8.97;;;5.70;;
16393;SDS011;8306;51.128;4.476;2023-06-14T05:49:12;6.40;;;5.80;;
16393;SDS011;8306;51.128;4.476;2023-06-14T05:51:39;9.70;;;5.57;;
16393;SDS011;8306;51.128;4.476;2023-06-14T05:54:05;8.03;;;5.90;;
16393;SDS011;8306;51.128;4.476;2023-06-14T05:56:32;6.60;;;6.00;;
16393;SDS011;8306;51.128;4.476;2023-06-14T05:58:58;5.97;;;5.43;;
16393;SDS011;8306;51.128;4.476;2023-06-14T06:01:24;7.03;;;5.30;;
16393;SDS011;8306;51.128;4.476;2023-06-14T06:03:51;7.40;;;6.60;;
16393;SDS011;8306;51.128;4.476;2023-06-14T06:06:17;8.13;;;7.03;;
16393;SDS011;8306;51.128;4.476;2023-06-14T06:08:44;6.40;;;5.73;;
16393;SDS011;8306;51.128;4.476;2023-06-14T06:11:10;8.80;;;6.33;;
16393;SDS011;8306;51.128;4.476;2023-06-14T06:13:37;6.43;;;5.93;;
16393;SDS011;8306;51.128;4.476;2023-06-14T06:16:03;6.97;;;6.37;;
16393;SDS011;8306;51.128;4.476;2023-06-14T06:18:30;7.27;;;6.63;;
16393;SDS011;8306;51.128;4.476;2023-06-14T06:20:56;6.67;;;6.10;;
16393;SDS011;8306;51.128;4.476;2023-06-14T06:23:23;6.80;;;6.20;;
16393;SDS011;8306;51.128;4.476;2023-06-14T06:25:49;6.60;;;6.00;;
16393;SDS011;8306;51.128;4.476;2023-06-14T06:28:16;7.17;;;6.47;;
16393;SDS011;8306;51.128;4.476;2023-06-14T06:30:42;6.13;;;5.63;;
16393;SDS011;8306;51.128;4.476;2023-06-14T06:33:09;6.60;;;5.70;;
16393;SDS011;8306;51.128;4.476;2023-06-14T06:35:35;7.03;;;6.10;;
16393;SDS011;8306;51.128;4.476;2023-06-14T06:38:02;6.60;;;6.03;;
16393;SDS011;8306;51.128;4.476;2023-06-14T06:40:28;7.33;;;6.63;;
16393;SDS011;8306;51.128;4.476;2023-06-14T06:42:55;6.83;;;6.23;;
16393;SDS011;8306;51.128;4.476;2023-06-14T06:45:21;7.50;;;5.80;;
16393;SDS011;8306;51.128;4.476;2023-06-14T06:47:48;6.80;;;6.17;;
16393;SDS011;8306;51.128;4.476;2023-06-14T06:50:14;6.57;;;5.97;;
16393;SDS011;8306;51.128;4.476;2023-06-14T06:52:41;6.80;;;6.07;;
16393;SDS011;8306;51.128;4.476;2023-06-14T06:55:07;7.17;;;5.90;;
16393;SDS011;8306;51.128;4.476;2023-06-14T06:57:34;5.60;;;5.10;;
16393;SDS011;8306;51.128;4.476;2023-06-14T07:00:00;6.77;;;6.10;;
16393;SDS011;8306;51.128;4.476;2023-06-14T07:02:26;6.00;;;5.60;;
16393;SDS011;8306;51.128;4.476;2023-06-14T07:04:53;7.32;;;6.32;;
16393;SDS011;8306;51.128;4.476;2023-06-14T07:07:19;6.47;;;5.53;;
16393;SDS011;8306;51.128;4.476;2023-06-14T07:09:46;6.47;;;5.97;;
16393;SDS011;8306;51.128;4.476;2023-06-14T07:12:12;6.37;;;5.97;;
16393;SDS011;8306;51.128;4.476;2023-06-14T07:14:39;6.35;;;5.25;;
16393;SDS011;8306;51.128;4.476;2023-06-14T07:17:05;7.32;;;5.95;;
16393;SDS011;8306;51.128;4.476;2023-06-14T07:19:32;7.25;;;5.75;;
16393;SDS011;8306;51.128;4.476;2023-06-14T07:21:58;6.45;;;5.97;;
16393;SDS011;8306;51.128;4.476;2023-06-14T07:24:25;7.45;;;6.37;;
16393;SDS011;8306;51.128;4.476;2023-06-14T07:26:51;6.10;;;5.50;;
16393;SDS011;8306;51.128;4.476;2023-06-14T07:29:18;6.90;;;5.47;;
16393;SDS011;8306;51.128;4.476;2023-06-14T07:31:44;6.45;;;5.97;;
16393;SDS011;8306;51.128;4.476;2023-06-14T07:34:11;7.82;;;6.07;;
16393;SDS011;8306;51.128;4.476;2023-06-14T07:36:37;6.72;;;6.12;;
16393;SDS011;8306;51.128;4.476;2023-06-14T07:39:04;6.97;;;5.93;;
16393;SDS011;8306;51.128;4.476;2023-06-14T07:41:30;6.43;;;5.85;;
16393;SDS011;8306;51.128;4.476;2023-06-14T07:43:57;6.45;;;5.85;;
16393;SDS011;8306;51.128;4.476;2023-06-14T07:46:23;5.97;;;5.35;;
16393;SDS011;8306;51.128;4.476;2023-06-14T07:48:50;5.95;;;5.37;;
16393;SDS011;8306;51.128;4.476;2023-06-14T07:51:16;6.37;;;5.78;;
16393;SDS011;8306;51.128;4.476;2023-06-14T07:53:43;5.97;;;5.40;;
16393;SDS011;8306;51.128;4.476;2023-06-14T07:56:09;8.50;;;5.80;;
16393;SDS011;8306;51.128;4.476;2023-06-14T07:58:35;11.43;;;6.00;;
16393;SDS011;8306;51.128;4.476;2023-06-14T08:01:02;5.35;;;4.93;;
16393;SDS011;8306;51.128;4.476;2023-06-14T08:03:28;5.72;;;5.22;;
16393;SDS011;8306;51.128;4.476;2023-06-14T08:05:55;5.65;;;5.15;;
16393;SDS011;8306;51.128;4.476;2023-06-14T08:08:21;7.12;;;4.70;;
16393;SDS011;8306;51.128;4.476;2023-06-14T08:10:48;5.45;;;4.80;;
16393;SDS011;8306;51.128;4.476;2023-06-14T08:13:14;7.87;;;5.18;;
16393;SDS011;8306;51.128;4.476;2023-06-14T08:15:41;5.87;;;5.37;;
16393;SDS011;8306;51.128;4.476;2023-06-14T08:18:07;7.25;;;5.40;;
16393;SDS011;8306;51.128;4.476;2023-06-14T08:20:34;6.70;;;5.60;;
16393;SDS011;8306;51.128;4.476;2023-06-14T08:23:02;5.57;;;5.07;;
16393;SDS011;8306;51.128;4.476;2023-06-14T08:25:27;6.03;;;5.53;;
16393;SDS011;8306;51.128;4.476;2023-06-14T08:27:53;7.87;;;5.18;;
16393;SDS011;8306;51.128;4.476;2023-06-14T08:30:20;6.23;;;5.20;;
16393;SDS011;8306;51.128;4.476;2023-06-14T08:32:46;6.13;;;5.47;;
16393;SDS011;8306;51.128;4.476;2023-06-14T08:35:13;6.20;;;5.60;;
16393;SDS011;8306;51.128;4.476;2023-06-14T08:37:39;9.60;;;5.87;;
16393;SDS011;8306;51.128;4.476;2023-06-14T08:40:07;5.90;;;5.40;;
16393;SDS011;8306;51.128;4.476;2023-06-14T08:42:33;6.00;;;5.40;;
16393;SDS011;8306;51.128;4.476;2023-06-14T08:44:59;7.63;;;5.53;;
16393;SDS011;8306;51.128;4.476;2023-06-14T08:47:26;5.82;;;5.35;;
16393;SDS011;8306;51.128;4.476;2023-06-14T08:49:52;5.33;;;4.83;;
16393;SDS011;8306;51.128;4.476;2023-06-14T08:52:19;5.65;;;5.15;;
16393;SDS011;8306;51.128;4.476;2023-06-14T08:54:45;6.12;;;5.53;;
16393;SDS011;8306;51.128;4.476;2023-06-14T08:57:12;7.07;;;6.57;;
16393;SDS011;8306;51.128;4.476;2023-06-14T08:59:39;8.50;;;5.35;;
16393;SDS011;8306;51.128;4.476;2023-06-14T09:02:05;6.37;;;5.55;;
16393;SDS011;8306;51.128;4.476;2023-06-14T09:04:31;6.20;;;5.68;;
16393;SDS011;8306;51.128;4.476;2023-06-14T09:06:58;7.25;;;5.70;;
16393;SDS011;8306;51.128;4.476;2023-06-14T09:09:24;8.20;;;5.85;;
16393;SDS011;8306;51.128;4.476;2023-06-14T09:11:51;5.75;;;5.25;;
16393;SDS011;8306;51.128;4.476;2023-06-14T09:14:21;6.12;;;5.60;;
16393;SDS011;8306;51.128;4.476;2023-06-14T09:16:47;6.30;;;5.68;;
16393;SDS011;8306;51.128;4.476;2023-06-14T09:19:25;7.35;;;5.37;;
16393;SDS011;8306;51.128;4.476;2023-06-14T09:21:52;5.62;;;5.12;;
16393;SDS011;8306;51.128;4.476;2023-06-14T09:24:18;5.62;;;5.00;;
16393;SDS011;8306;51.128;4.476;2023-06-14T09:26:47;5.93;;;4.78;;
16393;SDS011;8306;51.128;4.476;2023-06-14T09:29:13;5.20;;;4.72;;
16393;SDS011;8306;51.128;4.476;2023-06-14T09:31:40;6.45;;;4.62;;
16393;SDS011;8306;51.128;4.476;2023-06-14T09:34:06;6.20;;;5.05;;
16393;SDS011;8306;51.128;4.476;2023-06-14T09:36:33;5.40;;;4.90;;
16393;SDS011;8306;51.128;4.476;2023-06-14T09:39:00;4.62;;;4.32;;
16393;SDS011;8306;51.128;4.476;2023-06-14T09:41:32;5.43;;;5.00;;
16393;SDS011;8306;51.128;4.476;2023-06-14T09:44:02;5.75;;;4.78;;
16393;SDS011;8306;51.128;4.476;2023-06-14T09:46:28;5.85;;;4.75;;
16393;SDS011;8306;51.128;4.476;2023-06-14T09:48:54;4.95;;;4.53;;
16393;SDS011;8306;51.128;4.476;2023-06-14T09:51:21;4.78;;;4.37;;
16393;SDS011;8306;51.128;4.476;2023-06-14T09:53:47;4.80;;;4.40;;
16393;SDS011;8306;51.128;4.476;2023-06-14T09:56:13;5.12;;;4.43;;
16393;SDS011;8306;51.128;4.476;2023-06-14T09:58:40;4.60;;;4.15;;
16393;SDS011;8306;51.128;4.476;2023-06-14T10:01:06;5.90;;;4.40;;
16393;SDS011;8306;51.128;4.476;2023-06-14T10:03:33;4.50;;;4.10;;
16393;SDS011;8306;51.128;4.476;2023-06-14T10:05:59;3.78;;;3.55;;
16393;SDS011;8306;51.128;4.476;2023-06-14T10:08:26;5.18;;;4.10;;
16393;SDS011;8306;51.128;4.476;2023-06-14T10:10:53;4.68;;;3.62;;
16393;SDS011;8306;51.128;4.476;2023-06-14T10:13:19;4.53;;;4.12;;
16393;SDS011;8306;51.128;4.476;2023-06-14T10:16:05;5.73;;;3.97;;
16393;SDS011;8306;51.128;4.476;2023-06-14T10:18:35;4.87;;;3.83;;
16393;SDS011;8306;51.128;4.476;2023-06-14T10:21:03;6.22;;;3.37;;
16393;SDS011;8306;51.128;4.476;2023-06-14T10:23:28;4.68;;;4.00;;
16393;SDS011;8306;51.128;4.476;2023-06-14T10:25:56;4.65;;;3.42;;
16393;SDS011;8306;51.128;4.476;2023-06-14T10:28:21;3.95;;;3.65;;
16393;SDS011;8306;51.128;4.476;2023-06-14T10:31:06;4.32;;;3.95;;
16393;SDS011;8306;51.128;4.476;2023-06-14T10:33:35;4.10;;;3.78;;
16393;SDS011;8306;51.128;4.476;2023-06-14T10:38:37;4.60;;;3.50;;
16393;SDS011;8306;51.128;4.476;2023-06-14T10:41:03;4.47;;;3.58;;
16393;SDS011;8306;51.128;4.476;2023-06-14T10:43:29;6.10;;;3.90;;
16393;SDS011;8306;51.128;4.476;2023-06-14T10:46:15;5.30;;;3.72;;
16393;SDS011;8306;51.128;4.476;2023-06-14T10:48:41;6.00;;;3.62;;
16393;SDS011;8306;51.128;4.476;2023-06-14T10:51:16;7.43;;;3.17;;
16393;SDS011;8306;51.128;4.476;2023-06-14T10:53:42;4.25;;;3.50;;
16393;SDS011;8306;51.128;4.476;2023-06-14T10:56:08;5.03;;;3.63;;
16393;SDS011;8306;51.128;4.476;2023-06-14T10:58:35;3.70;;;3.40;;
16393;SDS011;8306;51.128;4.476;2023-06-14T11:01:01;4.93;;;3.63;;
16393;SDS011;8306;51.128;4.476;2023-06-14T11:05:55;4.60;;;3.50;;
16393;SDS011;8306;51.128;4.476;2023-06-14T11:10:59;4.23;;;3.27;;
16393;SDS011;8306;51.128;4.476;2023-06-14T11:13:28;3.33;;;2.83;;
16393;SDS011;8306;51.128;4.476;2023-06-14T11:15:55;5.45;;;3.28;;
16393;SDS011;8306;51.128;4.476;2023-06-14T11:18:21;5.72;;;3.47;;
16393;SDS011;8306;51.128;4.476;2023-06-14T11:20:48;3.67;;;3.37;;
16393;SDS011;8306;51.128;4.476;2023-06-14T11:23:14;4.68;;;3.30;;
16393;SDS011;8306;51.128;4.476;2023-06-14T11:25:41;3.50;;;3.20;;
16393;SDS011;8306;51.128;4.476;2023-06-14T11:28:07;3.83;;;3.37;;
16393;SDS011;8306;51.128;4.476;2023-06-14T11:30:34;6.13;;;3.40;;
16393;SDS011;8306;51.128;4.476;2023-06-14T11:33:00;5.80;;;3.73;;
16393;SDS011;8306;51.128;4.476;2023-06-14T11:35:27;7.00;;;3.13;;
16393;SDS011;8306;51.128;4.476;2023-06-14T11:37:54;3.20;;;2.90;;
16393;SDS011;8306;51.128;4.476;2023-06-14T11:40:20;3.67;;;3.33;;
16393;SDS011;8306;51.128;4.476;2023-06-14T11:42:46;3.53;;;3.23;;
16393;SDS011;8306;51.128;4.476;2023-06-14T11:45:13;4.53;;;3.20;;
16393;SDS011;8306;51.128;4.476;2023-06-14T11:47:39;3.47;;;3.27;;
16393;SDS011;8306;51.128;4.476;2023-06-14T11:50:06;4.87;;;3.10;;
16393;SDS011;8306;51.128;4.476;2023-06-14T11:52:32;4.60;;;3.33;;
16393;SDS011;8306;51.128;4.476;2023-06-14T11:54:58;5.03;;;3.28;;
16393;SDS011;8306;51.128;4.476;2023-06-14T11:57:25;8.50;;;3.37;;
16393;SDS011;8306;51.128;4.476;2023-06-14T11:59:52;3.83;;;3.40;;
16393;SDS011;8306;51.128;4.476;2023-06-14T12:02:18;3.40;;;3.10;;
16393;SDS011;8306;51.128;4.476;2023-06-14T12:04:47;3.50;;;3.20;;
16393;SDS011;8306;51.128;4.476;2023-06-14T12:07:14;4.03;;;3.20;;
16393;SDS011;8306;51.128;4.476;2023-06-14T12:09:41;5.77;;;3.20;;
16393;SDS011;8306;51.128;4.476;2023-06-14T12:12:20;3.70;;;3.30;;
16393;SDS011;8306;51.128;4.476;2023-06-14T12:14:49;4.40;;;2.83;;
16393;SDS011;8306;51.128;4.476;2023-06-14T12:17:16;5.57;;;3.27;;
16393;SDS011;8306;51.128;4.476;2023-06-14T12:19:44;6.10;;;2.90;;
16393;SDS011;8306;51.128;4.476;2023-06-14T12:22:09;3.57;;;2.80;;
16393;SDS011;8306;51.128;4.476;2023-06-14T12:24:34;5.17;;;2.90;;
16393;SDS011;8306;51.128;4.476;2023-06-14T12:27:00;5.40;;;2.70;;
16393;SDS011;8306;51.128;4.476;2023-06-14T12:29:30;3.13;;;2.50;;
16393;SDS011;8306;51.128;4.476;2023-06-14T12:31:56;4.47;;;2.80;;
16393;SDS011;8306;51.128;4.476;2023-06-14T12:34:23;3.93;;;2.73;;
16393;SDS011;8306;51.128;4.476;2023-06-14T12:36:50;2.40;;;2.23;;
16393;SDS011;8306;51.128;4.476;2023-06-14T12:39:16;3.37;;;2.63;;
16393;SDS011;8306;51.128;4.476;2023-06-14T12:41:42;10.40;;;2.33;;
16393;SDS011;8306;51.128;4.476;2023-06-14T12:44:09;2.53;;;2.30;;
16393;SDS011;8306;51.128;4.476;2023-06-14T12:46:36;2.60;;;2.17;;
16393;SDS011;8306;51.128;4.476;2023-06-14T12:49:02;3.27;;;2.27;;
16393;SDS011;8306;51.128;4.476;2023-06-14T12:51:28;4.63;;;2.17;;
16393;SDS011;8306;51.128;4.476;2023-06-14T12:53:55;3.97;;;2.10;;
16393;SDS011;8306;51.128;4.476;2023-06-14T12:56:21;4.00;;;2.43;;
16393;SDS011;8306;51.128;4.476;2023-06-14T12:58:48;3.70;;;2.30;;
16393;SDS011;8306;51.128;4.476;2023-06-14T13:01:14;2.67;;;2.47;;
16393;SDS011;8306;51.128;4.476;2023-06-14T13:03:41;2.70;;;2.03;;
16393;SDS011;8306;51.128;4.476;2023-06-14T13:06:07;2.40;;;1.40;;
16393;SDS011;8306;51.128;4.476;2023-06-14T13:08:33;2.60;;;1.80;;
16393;SDS011;8306;51.128;4.476;2023-06-14T13:11:00;3.47;;;1.73;;
16393;SDS011;8306;51.128;4.476;2023-06-14T13:13:26;5.47;;;1.80;;
16393;SDS011;8306;51.128;4.476;2023-06-14T13:15:53;2.23;;;1.53;;
16393;SDS011;8306;51.128;4.476;2023-06-14T13:18:19;2.27;;;1.47;;
16393;SDS011;8306;51.128;4.476;2023-06-14T13:20:46;1.90;;;1.60;;
16393;SDS011;8306;51.128;4.476;2023-06-14T13:23:12;1.50;;;1.40;;
16393;SDS011;8306;51.128;4.476;2023-06-14T13:25:39;3.00;;;1.70;;
16393;SDS011;8306;51.128;4.476;2023-06-14T13:28:05;1.40;;;1.30;;
16393;SDS011;8306;51.128;4.476;2023-06-14T13:30:32;3.00;;;1.30;;
16393;SDS011;8306;51.128;4.476;2023-06-14T13:32:58;3.10;;;1.40;;
16393;SDS011;8306;51.128;4.476;2023-06-14T13:35:25;2.87;;;1.40;;
16393;SDS011;8306;51.128;4.476;2023-06-14T13:37:51;1.87;;;1.30;;
16393;SDS011;8306;51.128;4.476;2023-06-14T13:40:18;1.60;;;1.43;;
16393;SDS011;8306;51.128;4.476;2023-06-14T13:42:45;3.23;;;1.30;;
16393;SDS011;8306;51.128;4.476;2023-06-14T13:45:11;3.77;;;1.40;;
16393;SDS011;8306;51.128;4.476;2023-06-14T13:47:37;4.03;;;1.50;;
16393;SDS011;8306;51.128;4.476;2023-06-14T13:50:04;4.63;;;1.23;;
16393;SDS011;8306;51.128;4.476;2023-06-14T13:52:30;1.43;;;1.33;;
16393;SDS011;8306;51.128;4.476;2023-06-14T13:54:57;1.53;;;1.27;;
16393;SDS011;8306;51.128;4.476;2023-06-14T13:57:23;2.43;;;1.60;;
16393;SDS011;8306;51.128;4.476;2023-06-14T13:59:49;1.30;;;1.20;;
16393;SDS011;8306;51.128;4.476;2023-06-14T14:02:16;1.93;;;1.40;;
16393;SDS011;8306;51.128;4.476;2023-06-14T14:04:42;5.63;;;1.43;;
16393;SDS011;8306;51.128;4.476;2023-06-14T14:07:09;1.53;;;1.43;;
16393;SDS011;8306;51.128;4.476;2023-06-14T14:09:35;3.67;;;1.73;;
16393;SDS011;8306;51.128;4.476;2023-06-14T14:12:02;1.30;;;1.20;;
16393;SDS011;8306;51.128;4.476;2023-06-14T14:14:29;7.47;;;1.50;;
16393;SDS011;8306;51.128;4.476;2023-06-14T14:16:55;2.80;;;1.60;;
16393;SDS011;8306;51.128;4.476;2023-06-14T14:19:21;1.93;;;1.63;;
16393;SDS011;8306;51.128;4.476;2023-06-14T14:21:48;2.03;;;1.50;;
16393;SDS011;8306;51.128;4.476;2023-06-14T14:24:14;1.70;;;1.60;;
16393;SDS011;8306;51.128;4.476;2023-06-14T14:26:41;1.60;;;1.50;;
16393;SDS011;8306;51.128;4.476;2023-06-14T14:29:07;2.13;;;1.50;;
16393;SDS011;8306;51.128;4.476;2023-06-14T14:31:34;1.83;;;1.57;;
16393;SDS011;8306;51.128;4.476;2023-06-14T14:34:00;3.53;;;1.30;;
16393;SDS011;8306;51.128;4.476;2023-06-14T14:36:27;1.73;;;1.63;;
16393;SDS011;8306;51.128;4.476;2023-06-14T14:38:53;2.27;;;1.63;;
16393;SDS011;8306;51.128;4.476;2023-06-14T14:41:20;3.50;;;1.80;;
16393;SDS011;8306;51.128;4.476;2023-06-14T14:43:46;2.00;;;1.40;;
16393;SDS011;8306;51.128;4.476;2023-06-14T14:46:13;2.70;;;1.57;;
16393;SDS011;8306;51.128;4.476;2023-06-14T14:48:39;3.70;;;1.50;;
16393;SDS011;8306;51.128;4.476;2023-06-14T14:51:05;2.70;;;1.40;;
16393;SDS011;8306;51.128;4.476;2023-06-14T14:53:32;1.73;;;1.63;;
16393;SDS011;8306;51.128;4.476;2023-06-14T14:55:58;2.60;;;1.60;;
16393;SDS011;8306;51.128;4.476;2023-06-14T14:58:25;2.10;;;1.47;;
16393;SDS011;8306;51.128;4.476;2023-06-14T15:00:51;3.10;;;1.70;;
16393;SDS011;8306;51.128;4.476;2023-06-14T15:03:18;2.40;;;1.70;;
16393;SDS011;8306;51.128;4.476;2023-06-14T15:05:44;3.37;;;1.47;;
16393;SDS011;8306;51.128;4.476;2023-06-14T15:08:11;3.90;;;1.67;;